Time;durP1;ratioP1;P1;durP2;ratioP2;P2;SDS_P1;SDS_P2;PMS_P1;PMS_P2;Temp;Humidity;BMP_temperature;BMP_pressure;BME280_temperature;BME280_humidity;BME280_pressure;Samples;Min_cycle;Max_cycle;Signal;HPM_P1;HPM_P2
2021/12/28 00:00:30;;;;;;;4.80;2.55;;;4.90;99.90;;;;;;5048841;28;20036;-78
2021/12/28 00:02:57;;;;;;;4.22;3.40;;;5.00;99.90;;;;;;5043525;28;20095;-78
2021/12/28 00:05:26;;;;;;;2.25;1.20;;;5.00;99.90;;;;;;5047814;28;20044;-78
2021/12/28 00:07:51;;;;;;;4.20;3.08;;;5.00;99.90;;;;;;5050298;28;20110;-78
2021/12/28 00:10:19;;;;;;;2.40;2.05;;;5.00;99.90;;;;;;5050696;28;20049;-78
2021/12/28 00:12:46;;;;;;;3.45;1.63;;;5.00;99.90;;;;;;5037712;28;20113;-78
2021/12/28 00:15:32;;;;;;;2.30;1.90;;;5.00;99.90;;;;;;5047682;28;20045;-78
2021/12/28 00:18:00;;;;;;;4.90;3.63;;;5.00;99.90;;;;;;5066034;28;20389;-78
2021/12/28 00:20:39;;;;;;;2.67;2.47;;;5.00;99.90;;;;;;5081346;28;20489;-78
2021/12/28 00:23:08;;;;;;;3.22;1.90;;;5.00;99.90;;;;;;5051820;28;20054;-77
2021/12/28 00:25:34;;;;;;;1.95;1.85;;;5.00;99.90;;;;;;5062701;28;20071;-77
2021/12/28 00:28:00;;;;;;;4.60;3.33;;;5.00;99.90;;;;;;5050157;28;20489;-77
2021/12/28 00:30:26;;;;;;;3.42;2.22;;;5.00;99.90;;;;;;5039068;28;20048;-77
2021/12/28 00:32:53;;;;;;;3.22;2.67;;;5.00;99.90;;;;;;5032215;28;20041;-77
2021/12/28 00:35:31;;;;;;;1.95;1.77;;;5.00;99.90;;;;;;5065739;28;20675;-77
2021/12/28 00:37:58;;;;;;;3.58;2.90;;;5.00;99.90;;;;;;5041031;28;20036;-78
2021/12/28 00:40:25;;;;;;;4.40;3.70;;;5.10;99.90;;;;;;5034852;28;20059;-77
2021/12/28 00:42:51;;;;;;;2.75;2.50;;;5.10;99.90;;;;;;5082230;28;20382;-78
2021/12/28 00:45:17;;;;;;;4.55;3.33;;;5.10;99.90;;;;;;5049783;28;20037;-77
2021/12/28 00:47:43;;;;;;;7.80;4.28;;;5.10;99.90;;;;;;5048183;28;20135;-77
2021/12/28 00:50:11;;;;;;;5.43;3.40;;;5.20;99.90;;;;;;5030579;28;20456;-78
2021/12/28 00:52:37;;;;;;;5.20;4.20;;;5.20;99.90;;;;;;5043786;28;20047;-78
2021/12/28 00:55:04;;;;;;;7.68;4.68;;;5.20;99.90;;;;;;5049586;28;20041;-78
2021/12/28 00:57:31;;;;;;;7.05;4.88;;;5.30;99.90;;;;;;5040402;28;20053;-78
2021/12/28 00:59:56;;;;;;;6.43;4.25;;;5.30;99.90;;;;;;5047842;28;20573;-77
2021/12/28 01:02:22;;;;;;;6.00;3.85;;;5.30;99.90;;;;;;5081788;28;20045;-77
2021/12/28 01:04:48;;;;;;;4.82;4.35;;;5.40;99.90;;;;;;5049929;28;20079;-78
2021/12/28 01:07:14;;;;;;;2.97;2.72;;;5.40;99.90;;;;;;5046263;28;20131;-78
2021/12/28 01:09:42;;;;;;;16.25;8.70;;;5.50;99.90;;;;;;5048247;28;20048;-77
2021/12/28 01:12:08;;;;;;;14.32;8.00;;;5.60;99.90;;;;;;5050192;28;20049;-77
2021/12/28 01:14:34;;;;;;;15.73;9.27;;;5.70;99.90;;;;;;5046527;28;20437;-78
2021/12/28 01:17:00;;;;;;;20.08;9.90;;;5.80;99.90;;;;;;5035521;28;20047;-78
2021/12/28 01:19:26;;;;;;;18.38;8.80;;;5.80;99.90;;;;;;5050355;28;20067;-78
2021/12/28 01:21:53;;;;;;;14.10;8.38;;;5.90;99.90;;;;;;5049895;28;20048;-77
2021/12/28 01:24:18;;;;;;;33.90;15.32;;;5.90;99.90;;;;;;5046470;28;20052;-78
2021/12/28 01:26:45;;;;;;;10.65;7.15;;;5.90;99.90;;;;;;5048503;28;20037;-78
2021/12/28 01:29:11;;;;;;;12.25;6.55;;;6.00;99.90;;;;;;5048945;28;20048;-77
2021/12/28 01:31:37;;;;;;;17.00;8.18;;;6.00;99.90;;;;;;5035861;28;20041;-77
2021/12/28 01:34:08;;;;;;;21.65;10.73;;;6.00;99.90;;;;;;5050132;28;20111;-77
2021/12/28 01:36:34;;;;;;;12.82;7.10;;;6.00;99.90;;;;;;5048981;28;20049;-77
2021/12/28 01:39:00;;;;;;;13.73;8.90;;;6.00;99.90;;;;;;5047418;28;20086;-78
2021/12/28 01:41:26;;;;;;;23.05;11.05;;;6.00;99.90;;;;;;5031862;28;20045;-78
2021/12/28 01:44:12;;;;;;;12.98;5.95;;;6.10;99.90;;;;;;5049139;28;20586;-78
2021/12/28 01:46:38;;;;;;;3.42;3.10;;;6.10;99.90;;;;;;5047023;28;20036;-78
2021/12/28 01:49:07;;;;;;;8.57;6.30;;;6.10;99.90;;;;;;5037346;28;20083;-77
2021/12/28 01:51:33;;;;;;;18.30;7.15;;;6.10;99.90;;;;;;5049839;28;20037;-78
2021/12/28 01:54:00;;;;;;;14.98;5.82;;;6.10;99.90;;;;;;5051555;28;20120;-78
2021/12/28 01:56:44;;;;;;;24.85;7.38;;;6.00;99.90;;;;;;5050351;28;20142;-78
2021/12/28 01:59:11;;;;;;;16.38;7.78;;;6.10;99.90;;;;;;5053729;28;20409;-77
2021/12/28 02:01:38;;;;;;;22.55;8.20;;;6.10;99.90;;;;;;5034891;28;20049;-77
2021/12/28 02:04:17;;;;;;;6.20;5.00;;;6.00;99.90;;;;;;5084514;28;20405;-78
2021/12/28 02:06:43;;;;;;;36.05;11.63;;;6.10;99.90;;;;;;5052099;28;20045;-77
2021/12/28 02:09:10;;;;;;;9.55;6.20;;;6.10;99.90;;;;;;5052415;28;20048;-77
2021/12/28 02:11:36;;;;;;;7.55;6.10;;;6.10;99.90;;;;;;5052562;28;20072;-77
2021/12/28 02:14:05;;;;;;;9.95;4.22;;;6.10;99.90;;;;;;5030998;28;20057;-77
2021/12/28 02:16:31;;;;;;;8.30;5.03;;;6.10;99.90;;;;;;5051794;28;20072;-77
2021/12/28 02:18:57;;;;;;;86.03;16.98;;;6.10;99.90;;;;;;5050936;28;20045;-77
2021/12/28 02:21:23;;;;;;;148.32;17.40;;;6.10;99.90;;;;;;5036402;28;20103;-77
2021/12/28 02:23:49;;;;;;;10.50;6.22;;;6.10;99.90;;;;;;5058945;28;20032;-77
2021/12/28 02:26:14;;;;;;;14.30;5.75;;;6.10;99.90;;;;;;5051906;28;20047;-77
2021/12/28 02:28:40;;;;;;;13.68;4.72;;;6.10;99.90;;;;;;5036993;28;20399;-78
2021/12/28 02:31:06;;;;;;;7.88;4.63;;;6.10;99.90;;;;;;5045176;28;20029;-78
2021/12/28 02:33:35;;;;;;;10.52;6.85;;;6.20;99.90;;;;;;5050703;28;20120;-78
2021/12/28 02:36:03;;;;;;;60.05;7.97;;;6.20;99.90;;;;;;5083604;28;20049;-77
2021/12/28 02:38:29;;;;;;;30.15;10.77;;;6.10;99.90;;;;;;5049229;28;20072;-77
2021/12/28 02:40:56;;;;;;;20.50;8.35;;;6.20;99.90;;;;;;5045125;28;20086;-77
2021/12/28 02:43:21;;;;;;;26.92;7.65;;;6.20;99.90;;;;;;5051489;28;20037;-78
2021/12/28 02:45:59;;;;;;;39.53;9.65;;;6.20;99.90;;;;;;5051829;28;20044;-77
2021/12/28 02:48:26;;;;;;;15.30;6.38;;;6.30;99.90;;;;;;5051541;28;20111;-77
2021/12/28 02:50:58;;;;;;;14.02;5.82;;;6.30;99.90;;;;;;5042335;28;20147;-77
2021/12/28 02:53:25;;;;;;;71.47;13.98;;;6.30;99.90;;;;;;5052349;28;20080;-77
2021/12/28 02:55:52;;;;;;;38.42;10.00;;;6.30;99.90;;;;;;5051198;28;20156;-78
2021/12/28 02:58:26;;;;;;;36.63;10.10;;;6.30;99.90;;;;;;5044119;28;20053;-77
2021/12/28 03:01:30;;;;;;;54.78;9.85;;;6.30;99.90;;;;;;5050355;28;20041;-77
2021/12/28 03:04:03;;;;;;;14.88;7.72;;;6.40;99.90;;;;;;5050872;28;20036;-77
2021/12/28 03:06:29;;;;;;;12.45;5.78;;;6.40;99.90;;;;;;5046607;28;20531;-77
2021/12/28 03:08:57;;;;;;;19.42;7.50;;;6.50;99.90;;;;;;5035916;28;20045;-77
2021/12/28 03:11:26;;;;;;;19.33;6.82;;;6.50;99.90;;;;;;5050033;28;20044;-77
2021/12/28 03:13:54;;;;;;;11.80;4.65;;;6.50;99.90;;;;;;5083614;28;20044;-77
2021/12/28 03:16:23;;;;;;;1.85;1.67;;;6.50;99.90;;;;;;5044005;28;20048;-78
2021/12/28 03:18:49;;;;;;;12.05;6.18;;;6.50;99.90;;;;;;5049722;28;20040;-78
2021/12/28 03:21:21;;;;;;;16.75;5.57;;;6.50;99.90;;;;;;5050130;28;20041;-77
2021/12/28 03:23:47;;;;;;;9.30;6.40;;;6.60;99.90;;;;;;5045489;28;20034;-77
2021/12/28 03:26:13;;;;;;;7.90;5.97;;;6.60;99.90;;;;;;5026128;28;20045;-77
2021/12/28 03:28:42;;;;;;;50.08;11.98;;;6.60;99.90;;;;;;5051317;28;20416;-78
2021/12/28 03:31:10;;;;;;;14.38;7.05;;;6.70;99.90;;;;;;5035521;28;20049;-77
2021/12/28 03:33:38;;;;;;;15.90;7.57;;;6.70;99.90;;;;;;5051304;28;20119;-78
2021/12/28 03:36:06;;;;;;;14.02;8.73;;;6.80;99.90;;;;;;5050540;28;20421;-78
2021/12/28 03:38:33;;;;;;;15.95;7.05;;;6.80;99.90;;;;;;5049069;28;20045;-78
2021/12/28 03:41:00;;;;;;;19.75;8.57;;;6.80;99.90;;;;;;5050365;28;20071;-78
2021/12/28 03:43:26;;;;;;;13.15;7.68;;;6.80;99.90;;;;;;5083092;28;20044;-77
2021/12/28 03:45:52;;;;;;;33.13;13.68;;;6.90;99.90;;;;;;5048502;28;20048;-78
2021/12/28 03:48:18;;;;;;;39.33;11.88;;;6.90;99.90;;;;;;5043732;28;20067;-78
2021/12/28 03:50:44;;;;;;;26.95;12.25;;;6.90;99.90;;;;;;5050932;28;20461;-78
2021/12/28 03:53:11;;;;;;;28.63;10.60;;;6.90;99.90;;;;;;5050556;28;20077;-78
2021/12/28 03:55:37;;;;;;;23.02;9.88;;;6.90;99.90;;;;;;5047550;28;20044;-78
2021/12/28 03:58:04;;;;;;;5.60;4.85;;;6.90;99.90;;;;;;5050723;28;20111;-78
2021/12/28 04:00:44;;;;;;;9.50;4.95;;;6.90;99.90;;;;;;5050695;28;20440;-78
2021/12/28 04:03:11;;;;;;;62.03;12.63;;;6.90;99.90;;;;;;5041058;28;20436;-77
2021/12/28 04:05:38;;;;;;;14.77;5.53;;;6.90;99.90;;;;;;5050060;28;20045;-78
2021/12/28 04:08:05;;;;;;;11.25;8.40;;;6.90;99.90;;;;;;5016431;28;20110;-78
2021/12/28 04:10:37;;;;;;;13.70;8.30;;;6.90;99.90;;;;;;5050159;28;20150;-77
2021/12/28 04:13:03;;;;;;;8.23;5.82;;;6.90;99.90;;;;;;5036289;28;20703;-77
2021/12/28 04:15:29;;;;;;;44.05;12.90;;;7.00;99.90;;;;;;5049512;28;20049;-78
2021/12/28 04:17:55;;;;;;;13.88;7.15;;;6.90;99.90;;;;;;5050170;28;20382;-78
2021/12/28 04:20:22;;;;;;;7.90;4.50;;;6.90;99.90;;;;;;5047404;28;20436;-78
2021/12/28 04:22:48;;;;;;;3.55;2.20;;;7.00;99.90;;;;;;5050084;28;20090;-78
2021/12/28 04:25:15;;;;;;;13.10;7.03;;;7.00;99.90;;;;;;5054479;28;20060;-77
2021/12/28 04:27:41;;;;;;;21.23;6.88;;;7.00;99.90;;;;;;5049870;28;20029;-78
2021/12/28 04:30:09;;;;;;;1.70;1.40;;;6.90;99.90;;;;;;5041422;28;20413;-78
2021/12/28 04:32:35;;;;;;;6.30;5.28;;;6.90;99.90;;;;;;5043899;28;20049;-78
2021/12/28 04:35:03;;;;;;;6.93;3.20;;;6.90;99.90;;;;;;5049997;28;20421;-78
2021/12/28 04:37:29;;;;;;;2.50;2.30;;;6.90;99.90;;;;;;5050403;28;20056;-78
2021/12/28 04:39:55;;;;;;;16.58;4.05;;;6.90;99.90;;;;;;5072360;28;20033;-77
2021/12/28 04:42:20;;;;;;;4.45;3.13;;;6.90;99.90;;;;;;5034461;28;20029;-78
2021/12/28 04:44:49;;;;;;;7.72;5.38;;;6.90;99.90;;;;;;5048943;28;20513;-78
2021/12/28 04:47:16;;;;;;;14.73;3.83;;;6.80;99.90;;;;;;5047252;28;20041;-78
2021/12/28 04:49:42;;;;;;;5.90;4.63;;;6.80;99.90;;;;;;5031687;28;20051;-78
2021/12/28 04:52:08;;;;;;;14.00;2.50;;;6.80;99.90;;;;;;5041122;28;20092;-78
2021/12/28 04:54:36;;;;;;;5.78;4.45;;;6.90;99.90;;;;;;5076101;28;20136;-78
2021/12/28 04:57:02;;;;;;;4.72;3.10;;;6.90;99.90;;;;;;5081819;28;20049;-78
2021/12/28 04:59:28;;;;;;;12.63;4.38;;;6.90;99.90;;;;;;5048388;28;20111;-78
2021/12/28 05:01:53;;;;;;;4.63;3.88;;;6.90;99.90;;;;;;5031371;28;20045;-78
2021/12/28 05:04:19;;;;;;;5.22;2.92;;;6.90;99.90;;;;;;5081723;28;20036;-78
2021/12/28 05:06:45;;;;;;;13.10;6.75;;;6.90;99.90;;;;;;5048520;28;20095;-78
2021/12/28 05:09:12;;;;;;;8.60;5.07;;;6.90;99.90;;;;;;5048455;28;20044;-78
2021/12/28 05:11:39;;;;;;;6.35;4.03;;;6.90;99.90;;;;;;5036607;28;20040;-77
2021/12/28 05:14:05;;;;;;;2.55;2.40;;;6.90;99.90;;;;;;5049703;28;20041;-77
2021/12/28 05:16:33;;;;;;;16.38;6.20;;;6.90;99.90;;;;;;5047854;28;20041;-78
2021/12/28 05:19:00;;;;;;;6.85;5.05;;;6.90;99.90;;;;;;5071488;28;20043;-78
2021/12/28 05:21:27;;;;;;;21.98;7.68;;;6.90;99.90;;;;;;5082341;28;20393;-77
2021/12/28 05:23:52;;;;;;;2.60;1.58;;;6.90;99.90;;;;;;5088992;28;20033;-78
2021/12/28 05:26:18;;;;;;;7.47;5.65;;;7.00;99.90;;;;;;5054860;28;20094;-77
2021/12/28 05:28:44;;;;;;;26.45;11.32;;;6.90;99.90;;;;;;5034392;28;20044;-78
2021/12/28 05:31:10;;;;;;;15.98;6.07;;;6.90;99.90;;;;;;5048563;28;20052;-78
2021/12/28 05:33:36;;;;;;;9.05;4.53;;;6.90;99.90;;;;;;5085342;28;20045;-78
2021/12/28 05:36:02;;;;;;;10.65;5.57;;;6.90;99.90;;;;;;5085736;28;20045;-78
2021/12/28 05:38:28;;;;;;;8.35;6.22;;;6.90;99.90;;;;;;5040263;28;20046;-78
2021/12/28 05:40:53;;;;;;;12.32;5.53;;;6.90;99.90;;;;;;5038368;28;20040;-77
2021/12/28 05:43:19;;;;;;;6.40;5.35;;;6.90;99.90;;;;;;5052312;28;20110;-78
2021/12/28 05:45:45;;;;;;;5.80;4.82;;;6.80;99.90;;;;;;5051421;28;20043;-77
2021/12/28 05:48:11;;;;;;;14.13;6.13;;;6.80;99.90;;;;;;5046707;28;20040;-78
2021/12/28 05:50:37;;;;;;;14.57;6.75;;;6.80;99.90;;;;;;5069550;28;20041;-78
2021/12/28 05:53:04;;;;;;;10.18;6.85;;;6.80;99.90;;;;;;5085265;28;20084;-78
2021/12/28 05:55:30;;;;;;;6.55;5.32;;;6.80;99.90;;;;;;5050760;28;20047;-78
2021/12/28 05:57:56;;;;;;;8.27;2.47;;;6.80;99.90;;;;;;5052053;28;20040;-78
2021/12/28 06:00:22;;;;;;;7.65;4.93;;;6.80;99.90;;;;;;5084694;28;20052;-78
2021/12/28 06:02:48;;;;;;;3.97;2.80;;;6.80;99.90;;;;;;5053106;28;20036;-78
2021/12/28 06:05:14;;;;;;;6.53;2.50;;;6.80;99.90;;;;;;5038092;28;20029;-78
2021/12/28 06:07:40;;;;;;;6.53;4.50;;;6.70;99.90;;;;;;5052201;28;20037;-78
2021/12/28 06:10:06;;;;;;;2.03;1.65;;;6.70;99.90;;;;;;5052487;28;20049;-77
2021/12/28 06:12:32;;;;;;;9.30;5.75;;;6.70;99.90;;;;;;5052868;28;20048;-78
2021/12/28 06:14:58;;;;;;;8.90;5.75;;;6.70;99.90;;;;;;5051301;28;20378;-78
2021/12/28 06:17:23;;;;;;;4.80;3.88;;;6.70;99.90;;;;;;5049239;28;20072;-78
2021/12/28 06:19:49;;;;;;;3.47;2.05;;;6.60;99.90;;;;;;5084385;28;20052;-78
2021/12/28 06:22:15;;;;;;;9.35;6.65;;;6.60;99.90;;;;;;5047421;28;20446;-78
2021/12/28 06:24:41;;;;;;;7.78;3.83;;;6.60;99.90;;;;;;5049237;28;20490;-77
2021/12/28 06:27:07;;;;;;;5.50;3.67;;;6.50;99.90;;;;;;5046514;28;20043;-78
2021/12/28 06:29:33;;;;;;;9.57;4.30;;;6.50;99.90;;;;;;5051175;28;20120;-78
2021/12/28 06:31:59;;;;;;;1.38;1.25;;;6.50;99.90;;;;;;5047384;28;20044;-77
2021/12/28 06:34:25;;;;;;;16.60;6.55;;;6.50;99.90;;;;;;5053821;28;20041;-78
2021/12/28 06:36:51;;;;;;;5.93;4.07;;;6.50;99.90;;;;;;5070270;28;20044;-77
2021/12/28 06:39:16;;;;;;;5.70;4.15;;;6.40;99.90;;;;;;5045813;28;20501;-78
2021/12/28 06:41:42;;;;;;;4.00;3.03;;;6.40;99.90;;;;;;5081786;28;20029;-77
2021/12/28 06:44:09;;;;;;;8.65;5.38;;;6.40;99.90;;;;;;5043158;28;20072;-77
2021/12/28 06:46:39;;;;;;;5.60;4.00;;;6.40;99.90;;;;;;5051564;28;20086;-77
2021/12/28 06:49:05;;;;;;;1.65;1.23;;;6.40;99.90;;;;;;5051908;28;20041;-77
2021/12/28 06:51:31;;;;;;;5.78;4.15;;;6.30;99.90;;;;;;5051729;28;20073;-77
2021/12/28 06:53:57;;;;;;;4.78;2.72;;;6.20;99.90;;;;;;5045957;28;20113;-78
2021/12/28 06:56:23;;;;;;;12.88;6.78;;;6.20;99.90;;;;;;5049817;28;20097;-77
2021/12/28 06:58:49;;;;;;;5.05;2.75;;;6.10;99.90;;;;;;5050843;28;20427;-78
2021/12/28 07:01:15;;;;;;;5.00;4.47;;;6.00;99.90;;;;;;5051467;28;20116;-78
2021/12/28 07:03:40;;;;;;;2.40;2.20;;;6.00;99.90;;;;;;5043501;28;20032;-77
2021/12/28 07:06:07;;;;;;;0.93;0.93;;;6.00;99.90;;;;;;5083686;28;20513;-77
2021/12/28 07:08:36;;;;;;;12.88;5.80;;;5.90;99.90;;;;;;5051541;28;20043;-78
2021/12/28 07:11:04;;;;;;;2.83;1.70;;;5.90;99.90;;;;;;5049684;28;20103;-77
2021/12/28 07:13:29;;;;;;;6.40;4.90;;;5.90;99.90;;;;;;5051695;28;20106;-77
2021/12/28 07:15:55;;;;;;;2.80;2.42;;;5.90;99.90;;;;;;5066294;28;20053;-77
2021/12/28 07:18:21;;;;;;;6.00;4.63;;;5.80;99.90;;;;;;5049840;28;20044;-77
2021/12/28 07:20:48;;;;;;;8.05;5.70;;;5.80;99.90;;;;;;5033705;28;20045;-77
2021/12/28 07:23:14;;;;;;;6.85;4.10;;;5.80;99.90;;;;;;5050710;28;20041;-78
2021/12/28 07:25:40;;;;;;;2.92;2.03;;;5.80;99.90;;;;;;5051388;28;20063;-77
2021/12/28 07:28:07;;;;;;;2.97;2.65;;;5.80;99.90;;;;;;5051769;28;20404;-77
2021/12/28 07:30:33;;;;;;;7.25;2.95;;;5.80;99.90;;;;;;5039337;28;20364;-77
2021/12/28 07:32:58;;;;;;;2.42;1.75;;;5.90;99.90;;;;;;5050360;28;20424;-78
2021/12/28 07:35:24;;;;;;;3.70;2.28;;;5.90;99.90;;;;;;5050650;28;20041;-77
2021/12/28 07:37:50;;;;;;;8.40;4.07;;;5.90;99.90;;;;;;5050535;28;20033;-77
2021/12/28 07:40:16;;;;;;;9.25;4.28;;;6.00;99.90;;;;;;5046453;28;20091;-78
2021/12/28 07:42:42;;;;;;;10.63;5.82;;;6.00;99.90;;;;;;5028100;28;20439;-78
2021/12/28 07:45:10;;;;;;;13.30;5.53;;;6.10;99.90;;;;;;5051783;28;20398;-78
2021/12/28 07:47:37;;;;;;;3.40;2.92;;;6.10;99.90;;;;;;5051187;28;20554;-77
2021/12/28 07:50:04;;;;;;;5.30;3.75;;;6.10;99.90;;;;;;5050116;28;20045;-77
2021/12/28 07:52:30;;;;;;;10.30;3.40;;;6.10;99.90;;;;;;5038073;28;20128;-77
2021/12/28 07:54:56;;;;;;;27.75;5.85;;;6.20;99.90;;;;;;5031138;28;20124;-77
2021/12/28 07:57:21;;;;;;;10.30;5.40;;;6.30;99.90;;;;;;5050588;28;20036;-77
2021/12/28 07:59:47;;;;;;;9.68;4.10;;;6.30;99.90;;;;;;5051169;28;20090;-78
2021/12/28 08:02:13;;;;;;;15.65;5.25;;;6.40;99.90;;;;;;5034570;28;20053;-78
2021/12/28 08:04:38;;;;;;;10.68;5.15;;;6.50;99.90;;;;;;5031217;28;20103;-78
2021/12/28 08:07:04;;;;;;;7.28;4.15;;;6.50;99.90;;;;;;5030695;28;20500;-78
2021/12/28 08:09:30;;;;;;;5.18;2.83;;;6.60;99.90;;;;;;5030660;28;20073;-78
2021/12/28 08:11:55;;;;;;;3.72;3.33;;;6.60;99.90;;;;;;5048886;28;20090;-78
2021/12/28 08:14:21;;;;;;;5.50;3.40;;;6.60;99.90;;;;;;5050700;28;20076;-77
2021/12/28 08:16:48;;;;;;;9.43;4.03;;;6.60;99.90;;;;;;5050491;28;20501;-77
2021/12/28 08:19:14;;;;;;;12.43;5.25;;;6.70;99.90;;;;;;5042792;28;20084;-78
2021/12/28 08:21:39;;;;;;;4.18;2.92;;;6.70;99.90;;;;;;5030930;28;20525;-77
2021/12/28 08:24:06;;;;;;;6.25;4.38;;;6.70;99.90;;;;;;5048336;28;20044;-77
2021/12/28 08:26:32;;;;;;;14.82;5.15;;;6.80;99.90;;;;;;5052578;28;20041;-78
2021/12/28 08:28:58;;;;;;;11.10;4.35;;;6.80;99.90;;;;;;5043929;28;20048;-77
2021/12/28 08:31:24;;;;;;;5.20;3.40;;;6.80;99.90;;;;;;5030684;28;20112;-77
2021/12/28 08:33:49;;;;;;;14.10;5.22;;;6.80;99.90;;;;;;5031045;28;20124;-77
2021/12/28 08:36:15;;;;;;;23.50;5.75;;;6.80;99.90;;;;;;5030736;28;20545;-78
2021/12/28 08:38:43;;;;;;;11.90;3.40;;;6.90;99.90;;;;;;5030550;28;20044;-77
2021/12/28 08:41:10;;;;;;;5.28;3.47;;;6.90;99.90;;;;;;5046153;28;20108;-77
2021/12/28 08:43:36;;;;;;;7.60;3.78;;;7.00;99.90;;;;;;5040876;28;20040;-77
2021/12/28 08:46:03;;;;;;;5.93;3.55;;;7.00;99.90;;;;;;5040875;28;20037;-77
2021/12/28 08:48:29;;;;;;;14.27;5.78;;;7.00;99.90;;;;;;5043970;28;20044;-78
2021/12/28 08:50:54;;;;;;;5.78;3.83;;;7.00;99.90;;;;;;5040353;28;20033;-77
2021/12/28 08:53:20;;;;;;;12.23;4.57;;;7.00;99.90;;;;;;5031668;28;20775;-77
2021/12/28 08:55:47;;;;;;;10.57;3.30;;;7.10;99.90;;;;;;5062956;28;20040;-77
2021/12/28 08:58:15;;;;;;;8.02;4.00;;;7.10;99.90;;;;;;5044263;28;20412;-77
2021/12/28 09:00:41;;;;;;;18.80;6.93;;;7.20;99.90;;;;;;5045115;28;20052;-78
2021/12/28 09:03:07;;;;;;;3.95;3.25;;;7.20;99.90;;;;;;5046297;28;20045;-77
2021/12/28 09:05:35;;;;;;;12.10;5.90;;;7.20;99.90;;;;;;5031951;28;20095;-77
2021/12/28 09:08:04;;;;;;;9.43;4.10;;;7.20;99.90;;;;;;5044914;28;20044;-77
2021/12/28 09:10:30;;;;;;;9.48;3.60;;;7.30;99.90;;;;;;5030969;28;20037;-77
2021/12/28 09:12:56;;;;;;;19.30;6.07;;;7.40;99.90;;;;;;5035147;28;20052;-77
2021/12/28 09:15:22;;;;;;;4.53;2.50;;;7.40;99.90;;;;;;5031267;28;20047;-77
2021/12/28 09:17:48;;;;;;;10.32;3.75;;;7.50;99.90;;;;;;5043828;28;20049;-78
2021/12/28 09:20:18;;;;;;;12.77;4.63;;;7.50;99.90;;;;;;5045242;28;20087;-78
2021/12/28 09:22:44;;;;;;;15.63;3.65;;;7.50;99.90;;;;;;5050004;28;20402;-77
2021/12/28 09:25:11;;;;;;;10.00;3.95;;;7.60;99.90;;;;;;5045868;28;20574;-78
2021/12/28 09:27:38;;;;;;;11.02;3.85;;;7.50;99.90;;;;;;5050222;28;20406;-77
2021/12/28 09:30:06;;;;;;;4.93;2.50;;;7.50;99.90;;;;;;5045898;28;20544;-77
2021/12/28 09:32:31;;;;;;;12.52;3.92;;;7.50;99.90;;;;;;5033518;28;20125;-78
2021/12/28 09:34:58;;;;;;;10.07;3.60;;;7.50;99.90;;;;;;5035558;28;20560;-77
2021/12/28 09:37:23;;;;;;;13.10;3.20;;;7.40;99.90;;;;;;5035344;28;20455;-77
2021/12/28 09:39:50;;;;;;;6.43;2.03;;;7.40;99.90;;;;;;5039965;28;20037;-77
2021/12/28 09:42:17;;;;;;;7.53;3.08;;;7.50;99.90;;;;;;5044337;28;20052;-78
2021/12/28 09:44:47;;;;;;;8.80;4.35;;;7.50;99.90;;;;;;5051434;28;20091;-78
2021/12/28 09:47:15;;;;;;;6.57;2.38;;;7.50;99.90;;;;;;5050390;28;20052;-78
2021/12/28 09:49:41;;;;;;;7.20;4.00;;;7.60;99.90;;;;;;5034529;28;20053;-78
2021/12/28 09:52:07;;;;;;;5.35;3.72;;;7.60;99.90;;;;;;5027126;28;20045;-78
2021/12/28 09:54:33;;;;;;;6.43;3.17;;;7.70;99.90;;;;;;5026751;28;20045;-78
2021/12/28 09:57:00;;;;;;;10.38;3.88;;;7.70;99.90;;;;;;5050563;28;20068;-78
2021/12/28 09:59:30;;;;;;;5.15;2.95;;;7.80;99.90;;;;;;5043476;28;20045;-78
2021/12/28 10:01:59;;;;;;;12.10;4.72;;;7.80;99.90;;;;;;5042798;28;20432;-78
2021/12/28 10:04:26;;;;;;;7.38;3.80;;;7.80;99.90;;;;;;5052381;28;20440;-78
2021/12/28 10:06:52;;;;;;;11.00;3.95;;;7.80;99.90;;;;;;5051981;28;20111;-78
2021/12/28 10:09:22;;;;;;;10.95;5.88;;;7.90;99.90;;;;;;5015822;28;20493;-78
2021/12/28 10:11:53;;;;;;;13.55;5.30;;;7.90;99.90;;;;;;5033543;28;20402;-77
2021/12/28 10:14:24;;;;;;;9.80;3.85;;;7.90;99.90;;;;;;5033088;28;20387;-78
2021/12/28 10:17:02;;;;;;;6.43;3.15;;;7.90;99.90;;;;;;5032230;28;20203;-78
2021/12/28 10:19:40;;;;;;;6.85;3.40;;;7.90;99.90;;;;;;5033675;28;20041;-78
2021/12/28 10:22:25;;;;;;;13.95;4.43;;;7.90;99.90;;;;;;5072260;28;20119;-78
2021/12/28 10:24:53;;;;;;;10.07;3.58;;;7.90;99.90;;;;;;5067447;28;21584;-78
2021/12/28 10:27:21;;;;;;;6.88;3.60;;;7.90;99.90;;;;;;5052984;28;20041;-77
2021/12/28 10:29:47;;;;;;;6.53;3.75;;;7.90;99.90;;;;;;5055047;28;20520;-78
2021/12/28 10:32:25;;;;;;;10.82;4.22;;;7.90;99.90;;;;;;5033399;28;20045;-78
2021/12/28 10:34:59;;;;;;;4.53;2.75;;;7.90;99.90;;;;;;5031516;28;20577;-78
2021/12/28 10:37:31;;;;;;;9.13;4.93;;;7.90;99.90;;;;;;5051485;28;20049;-78
2021/12/28 10:39:59;;;;;;;6.22;2.90;;;7.90;99.90;;;;;;5052491;28;20047;-78
2021/12/28 10:42:54;;;;;;;5.55;2.75;;;7.90;99.90;;;;;;5036974;28;20486;-78
2021/12/28 10:45:28;;;;;;;7.75;3.13;;;7.90;99.90;;;;;;5032605;28;20402;-77
2021/12/28 10:47:55;;;;;;;10.82;3.38;;;7.80;99.90;;;;;;5032537;28;20175;-77
2021/12/28 10:50:31;;;;;;;9.02;2.80;;;7.80;99.90;;;;;;5034469;28;20041;-78
2021/12/28 10:53:11;;;;;;;1.48;1.38;;;7.80;99.90;;;;;;5074089;28;20171;-78
2021/12/28 10:55:40;;;;;;;3.85;2.65;;;7.80;99.90;;;;;;5041532;28;20409;-77
2021/12/28 10:58:07;;;;;;;5.78;3.72;;;7.80;99.90;;;;;;5045940;28;20073;-77
2021/12/28 11:00:41;;;;;;;8.88;3.95;;;7.80;99.90;;;;;;5046687;28;20041;-77
2021/12/28 11:03:30;;;;;;;6.85;3.47;;;7.80;99.90;;;;;;5032462;28;20383;-77
2021/12/28 11:05:57;;;;;;;3.50;2.25;;;7.90;99.90;;;;;;5041687;28;20045;-78
2021/12/28 11:08:26;;;;;;;7.47;3.22;;;7.90;99.90;;;;;;5051932;28;20076;-77
2021/12/28 11:10:57;;;;;;;4.88;3.20;;;7.90;99.90;;;;;;5035009;28;20049;-77
2021/12/28 11:13:26;;;;;;;7.53;3.47;;;7.90;99.90;;;;;;5032270;28;20665;-77
2021/12/28 11:15:52;;;;;;;3.55;2.65;;;7.80;99.90;;;;;;5030578;28;20045;-77
2021/12/28 11:18:33;;;;;;;5.70;3.05;;;7.90;99.90;;;;;;5031643;28;20562;-77
2021/12/28 11:21:11;;;;;;;4.45;2.42;;;7.90;99.90;;;;;;5045385;28;20115;-77
2021/12/28 11:23:37;;;;;;;2.83;2.60;;;7.80;99.90;;;;;;5052732;28;20147;-77
2021/12/28 11:26:05;;;;;;;8.40;3.58;;;7.80;99.90;;;;;;5079787;28;20136;-78
2021/12/28 11:28:31;;;;;;;3.60;2.60;;;7.80;99.90;;;;;;5043239;28;20037;-78
2021/12/28 11:31:06;;;;;;;5.05;1.92;;;7.80;99.90;;;;;;5035671;28;20692;-78
2021/12/28 11:34:03;;;;;;;7.10;3.88;;;7.80;99.90;;;;;;5031203;28;20056;-78
2021/12/28 11:36:45;;;;;;;2.88;1.92;;;7.80;99.90;;;;;;5038466;28;20110;-78
2021/12/28 11:39:26;;;;;;;1.77;1.60;;;7.90;99.90;;;;;;5017023;28;20053;-78
2021/12/28 11:41:54;;;;;;;1.90;1.67;;;7.90;99.90;;;;;;5044165;28;20452;-78
2021/12/28 11:44:22;;;;;;;5.70;4.35;;;7.90;99.90;;;;;;5046858;28;20370;-78
2021/12/28 11:46:53;;;;;;;8.70;3.15;;;7.90;99.90;;;;;;5047206;28;20037;-78
2021/12/28 11:49:21;;;;;;;1.95;1.77;;;7.90;99.90;;;;;;5047270;28;20036;-78
2021/12/28 11:51:48;;;;;;;3.78;2.13;;;7.90;99.90;;;;;;5027702;28;20045;-78
2021/12/28 11:54:17;;;;;;;3.65;3.03;;;7.90;99.90;;;;;;5039078;28;20049;-78
2021/12/28 11:56:50;;;;;;;2.92;2.17;;;7.90;99.90;;;;;;5051029;28;20052;-78
2021/12/28 11:59:20;;;;;;;3.83;2.47;;;7.90;99.90;;;;;;5035287;28;20473;-79
2021/12/28 12:02:13;;;;;;;2.67;2.47;;;8.00;99.90;;;;;;5040846;28;20048;-78
2021/12/28 12:04:46;;;;;;;3.30;2.35;;;7.90;99.90;;;;;;5038496;28;20492;-79
2021/12/28 12:07:14;;;;;;;2.65;2.38;;;7.90;99.90;;;;;;5042501;28;20045;-79
2021/12/28 12:09:49;;;;;;;5.10;3.67;;;8.00;99.90;;;;;;5040508;28;20118;-79
2021/12/28 12:12:23;;;;;;;7.95;3.67;;;8.00;99.90;;;;;;5031034;28;20041;-78
2021/12/28 12:14:57;;;;;;;6.95;4.82;;;8.00;99.90;;;;;;5035393;28;20044;-78
2021/12/28 12:17:28;;;;;;;3.40;2.72;;;8.00;99.90;;;;;;5040861;28;20116;-78
2021/12/28 12:20:20;;;;;;;2.47;2.28;;;8.00;99.90;;;;;;5055891;28;20041;-78
2021/12/28 12:22:48;;;;;;;1.73;1.63;;;8.00;99.90;;;;;;5060160;28;20044;-78
2021/12/28 12:25:13;;;;;;;3.95;2.65;;;8.00;99.90;;;;;;5051967;28;20108;-78
2021/12/28 12:27:45;;;;;;;1.83;1.67;;;8.00;99.90;;;;;;5041542;28;20129;-78
2021/12/28 12:30:17;;;;;;;3.63;2.80;;;8.00;99.90;;;;;;5031090;28;20045;-78
2021/12/28 12:33:06;;;;;;;2.72;2.13;;;8.10;99.90;;;;;;5030704;28;20057;-78
2021/12/28 12:35:52;;;;;;;5.50;3.70;;;8.10;99.90;;;;;;5049153;28;20049;-78
2021/12/28 12:38:24;;;;;;;2.00;1.77;;;8.10;99.90;;;;;;5048822;28;20103;-78
2021/12/28 12:40:54;;;;;;;5.30;1.80;;;8.10;99.90;;;;;;5032985;28;20045;-78
2021/12/28 12:43:21;;;;;;;2.58;2.13;;;8.10;99.90;;;;;;5030771;28;20049;-78
2021/12/28 12:45:54;;;;;;;2.13;1.63;;;8.10;99.90;;;;;;5030156;28;20045;-78
2021/12/28 12:48:35;;;;;;;2.70;2.35;;;8.10;99.90;;;;;;5033436;28;20064;-78
2021/12/28 12:51:22;;;;;;;2.72;1.55;;;8.10;99.90;;;;;;5073834;28;20047;-78
2021/12/28 12:53:48;;;;;;;6.55;4.57;;;8.10;99.90;;;;;;5050609;28;20076;-79
2021/12/28 12:56:39;;;;;;;1.60;1.50;;;8.10;99.90;;;;;;5048675;28;20120;-78
2021/12/28 12:59:19;;;;;;;6.57;3.63;;;8.10;99.90;;;;;;5020847;28;20164;-78